Time;durP1;ratioP1;P1;durP2;ratioP2;P2;SDS_P1;SDS_P2;PMS_P1;PMS_P2;Temp;Humidity;BMP_temperature;BMP_pressure;BME280_temperature;BME280_humidity;BME280_pressure;Samples;Min_cycle;Max_cycle;Signal;HPM_P1;HPM_P2
2023/04/22 00:01:49;;;;;;;2.30;2.00;;;;;;;15.53;44.81;100577.34;5057405;28;20036;-67
2023/04/22 00:04:15;;;;;;;3.45;2.38;;;;;;;15.54;45.31;100587.16;5075902;28;20115;-67
2023/04/22 00:06:40;;;;;;;8.38;2.15;;;;;;;15.55;45.15;100575.31;5041179;28;20370;-67
2023/04/22 00:09:05;;;;;;;4.65;1.67;;;;;;;15.57;45.46;100584.13;5057760;28;20033;-67
2023/04/22 00:11:31;;;;;;;3.72;2.20;;;;;;;15.58;45.12;100574.97;5041277;28;20035;-67
2023/04/22 00:13:56;;;;;;;5.63;2.40;;;;;;;15.57;44.10;100577.88;5057633;28;20029;-66
2023/04/22 00:16:22;;;;;;;2.35;1.63;;;;;;;15.61;43.89;100569.25;5041390;28;20493;-67
2023/04/22 00:18:47;;;;;;;1.65;1.50;;;;;;;15.60;44.64;100572.13;5057941;28;20029;-67
2023/04/22 00:21:13;;;;;;;2.22;1.48;;;;;;;15.60;44.85;100561.34;5058086;28;20028;-66
2023/04/22 00:23:38;;;;;;;4.68;1.65;;;;;;;15.63;44.15;100574.50;5076331;28;20044;-67
2023/04/22 00:26:03;;;;;;;2.88;1.90;;;;;;;15.63;44.20;100561.00;5075691;28;20024;-67
2023/04/22 00:28:29;;;;;;;5.00;2.45;;;;;;;15.62;45.07;100557.44;5058096;28;20036;-67
2023/04/22 00:30:54;;;;;;;4.03;2.05;;;;;;;15.66;45.02;100566.88;5075744;28;20024;-67
2023/04/22 00:33:19;;;;;;;1.92;1.63;;;;;;;15.66;44.00;100563.38;5024810;28;20059;-67
2023/04/22 00:35:45;;;;;;;2.58;2.05;;;;;;;15.67;45.03;100565.88;5057929;28;20112;-67
2023/04/22 00:38:11;;;;;;;2.63;2.00;;;;;;;15.65;44.33;100557.13;5057542;28;20020;-67
2023/04/22 00:40:36;;;;;;;2.28;1.90;;;;;;;15.69;45.60;100560.28;5060054;28;20480;-67
2023/04/22 00:43:02;;;;;;;2.55;2.00;;;;;;;15.65;44.80;100543.63;5077817;28;20511;-67
2023/04/22 00:45:27;;;;;;;4.55;1.95;;;;;;;15.69;45.27;100561.16;5043936;28;20040;-67
2023/04/22 00:47:53;;;;;;;2.35;1.63;;;;;;;15.68;45.94;100548.69;5058256;28;20068;-67
2023/04/22 00:50:18;;;;;;;3.97;2.22;;;;;;;15.69;45.79;100555.75;5064078;28;20064;-67
2023/04/22 00:52:44;;;;;;;4.53;1.95;;;;;;;15.70;44.50;100554.75;5077812;28;20032;-67
2023/04/22 00:55:10;;;;;;;3.28;2.38;;;;;;;15.70;45.51;100552.03;5077380;28;20025;-68
2023/04/22 00:57:36;;;;;;;2.13;1.38;;;;;;;15.68;45.33;100537.03;5060073;28;20025;-67
2023/04/22 01:00:04;;;;;;;1.55;1.45;;;;;;;15.70;44.48;100540.38;5059826;28;20495;-67
2023/04/22 01:02:29;;;;;;;5.18;1.80;;;;;;;15.69;45.70;100542.25;5060239;28;20028;-67
2023/04/22 01:04:55;;;;;;;2.67;1.80;;;;;;;15.70;44.61;100545.78;5060509;28;20028;-68
2023/04/22 01:07:20;;;;;;;2.90;1.85;;;;;;;15.67;45.85;100536.19;5076915;28;20040;-67
2023/04/22 01:09:46;;;;;;;2.90;1.50;;;;;;;15.68;46.06;100537.88;5076191;28;20040;-67
2023/04/22 01:12:12;;;;;;;2.05;1.67;;;;;;;15.67;44.35;100536.19;5059688;28;20058;-67
2023/04/22 01:14:37;;;;;;;5.68;1.73;;;;;;;15.65;45.03;100535.50;5076299;28;20364;-67
2023/04/22 01:17:03;;;;;;;2.33;1.85;;;;;;;15.66;45.22;100528.25;5059594;28;20031;-68
2023/04/22 01:19:29;;;;;;;2.03;1.70;;;;;;;15.62;44.62;100533.16;5094868;28;20054;-67
2023/04/22 01:21:54;;;;;;;1.60;1.50;;;;;;;15.66;44.71;100531.78;5076339;28;20411;-67
2023/04/22 01:24:20;;;;;;;3.08;1.63;;;;;;;15.67;45.31;100530.78;5059474;28;20036;-67
2023/04/22 01:26:46;;;;;;;3.03;1.80;;;;;;;15.68;44.78;100529.78;5076238;28;20119;-67
2023/04/22 01:29:13;;;;;;;4.90;1.88;;;;;;;15.68;45.28;100531.63;5059466;28;20032;-67
2023/04/22 01:31:39;;;;;;;1.92;1.60;;;;;;;15.68;45.41;100524.38;5060140;28;20024;-67
2023/04/22 01:34:04;;;;;;;1.95;1.83;;;;;;;15.68;45.62;100532.47;5059331;28;20040;-67
2023/04/22 01:36:31;;;;;;;3.30;2.03;;;;;;;15.68;44.94;100527.06;5059282;28;20048;-67
2023/04/22 01:38:57;;;;;;;2.42;2.15;;;;;;;15.69;45.88;100528.75;5093490;28;20032;-67
2023/04/22 01:41:22;;;;;;;2.83;2.00;;;;;;;15.67;45.21;100525.38;5075636;28;20369;-67
2023/04/22 01:43:48;;;;;;;3.33;2.33;;;;;;;15.68;45.60;100529.78;5076096;28;20031;-67
2023/04/22 01:46:16;;;;;;;2.90;2.00;;;;;;;15.65;45.94;100538.22;5059092;28;20059;-67
2023/04/22 01:48:42;;;;;;;1.92;1.45;;;;;;;15.65;46.14;100534.66;5059113;28;20032;-67
2023/04/22 01:51:07;;;;;;;2.63;1.70;;;;;;;15.62;46.18;100535.00;5075599;28;20377;-67
2023/04/22 01:53:34;;;;;;;2.45;1.75;;;;;;;15.62;45.53;100532.28;5059126;28;20032;-67
2023/04/22 01:56:00;;;;;;;2.58;2.08;;;;;;;15.61;45.68;100526.03;5058971;28;20078;-67
2023/04/22 01:58:29;;;;;;;2.65;2.03;;;;;;;15.60;44.89;100535.19;5076021;28;20020;-67
2023/04/22 02:00:55;;;;;;;3.58;2.40;;;;;;;15.60;46.10;100529.78;5076207;28;20052;-67
2023/04/22 02:03:21;;;;;;;2.15;1.95;;;;;;;15.61;46.22;100534.16;5075270;28;20047;-67
2023/04/22 02:05:46;;;;;;;4.03;2.17;;;;;;;15.62;45.37;100533.16;5093587;28;20032;-67
2023/04/22 02:08:12;;;;;;;4.15;2.15;;;;;;;15.55;45.91;100515.91;5059175;28;20077;-67
2023/04/22 02:10:37;;;;;;;2.95;2.08;;;;;;;15.62;45.18;100527.75;5059241;28;20030;-67
2023/04/22 02:13:02;;;;;;;3.33;2.30;;;;;;;15.62;45.49;100527.75;5075128;28;20161;-67
2023/04/22 02:15:28;;;;;;;5.03;2.38;;;;;;;15.64;46.16;100531.09;5074217;28;20035;-67
2023/04/22 02:17:53;;;;;;;4.57;2.63;;;;;;;15.64;45.33;100528.41;5075258;28;20040;-67
2023/04/22 02:20:19;;;;;;;3.50;2.22;;;;;;;15.61;46.15;100528.75;5074202;28;20043;-67
2023/04/22 02:22:44;;;;;;;2.95;2.17;;;;;;;15.63;46.33;100524.00;5058777;28;20035;-67
2023/04/22 02:25:11;;;;;;;3.65;2.35;;;;;;;15.64;45.53;100523.00;5074988;28;20059;-67
2023/04/22 02:27:38;;;;;;;4.85;2.42;;;;;;;15.65;46.29;100527.41;5074764;28;20040;-67
2023/04/22 02:30:04;;;;;;;2.50;2.05;;;;;;;15.65;45.14;100524.72;5093152;28;20039;-67
2023/04/22 02:32:29;;;;;;;2.63;1.83;;;;;;;15.63;46.06;100515.09;5075025;28;20102;-67
2023/04/22 02:34:55;;;;;;;5.97;2.60;;;;;;;15.65;45.49;100519.31;5075580;28;20084;-67
2023/04/22 02:37:21;;;;;;;3.85;2.63;;;;;;;15.65;46.50;100522.00;5075151;28;20127;-67
2023/04/22 02:39:47;;;;;;;4.13;2.45;;;;;;;15.64;46.43;100514.91;5058823;28;20032;-67
2023/04/22 02:42:13;;;;;;;3.38;2.10;;;;;;;15.64;45.14;100514.06;5075117;28;20166;-67
2023/04/22 02:44:38;;;;;;;5.65;2.63;;;;;;;15.64;45.79;100508.66;5092887;28;20050;-67
2023/04/22 02:47:05;;;;;;;3.90;2.55;;;;;;;15.65;46.23;100513.91;5074875;28;20113;-67
2023/04/22 02:49:31;;;;;;;3.15;2.60;;;;;;;15.66;45.42;100512.88;5058652;28;20024;-67
2023/04/22 02:51:56;;;;;;;4.45;2.80;;;;;;;15.66;46.17;100506.66;5058352;28;20045;-67
2023/04/22 02:54:22;;;;;;;2.85;2.20;;;;;;;15.66;46.49;100507.47;5038206;28;20039;-67
2023/04/22 02:56:47;;;;;;;3.30;2.72;;;;;;;15.67;45.55;100503.78;5055142;28;20020;-67
2023/04/22 02:59:12;;;;;;;2.92;2.10;;;;;;;15.70;46.03;100503.44;5021743;28;20119;-67
2023/04/22 03:01:38;;;;;;;4.20;2.10;;;;;;;15.71;46.23;100505.13;5073236;28;20099;-67
2023/04/22 03:04:03;;;;;;;4.90;2.45;;;;;;;15.71;45.97;100499.72;5055012;28;20522;-67
2023/04/22 03:06:29;;;;;;;4.30;2.53;;;;;;;15.76;47.01;100495.66;5054907;28;20115;-67
2023/04/22 03:08:55;;;;;;;5.38;2.75;;;;;;;15.77;45.46;100487.41;5038201;28;20421;-67
2023/04/22 03:11:20;;;;;;;3.65;2.40;;;;;;;15.79;47.04;100481.81;5038333;28;20504;-67
2023/04/22 03:13:46;;;;;;;3.75;2.58;;;;;;;15.79;46.63;100487.22;5072996;28;20112;-67
2023/04/22 03:16:11;;;;;;;4.53;2.63;;;;;;;15.80;45.98;100478.94;5054643;28;20052;-67
2023/04/22 03:18:36;;;;;;;4.20;2.90;;;;;;;15.79;46.32;100476.41;5037956;28;20039;-67
2023/04/22 03:21:02;;;;;;;4.30;3.17;;;;;;;15.78;45.61;100475.56;5054635;28;20067;-67
2023/04/22 03:23:28;;;;;;;5.40;2.78;;;;;;;15.77;46.59;100464.94;5053475;28;20523;-67
2023/04/22 03:25:53;;;;;;;2.75;2.28;;;;;;;15.74;45.75;100472.34;5054974;28;20063;-67
2023/04/22 03:28:18;;;;;;;5.15;3.05;;;;;;;15.73;47.06;100459.88;5054454;28;20423;-67
2023/04/22 03:30:44;;;;;;;3.53;2.47;;;;;;;15.74;45.87;100463.44;5054578;28;20159;-67
2023/04/22 03:33:10;;;;;;;5.70;3.42;;;;;;;15.71;46.73;100459.22;5041605;28;20048;-67
2023/04/22 03:35:35;;;;;;;10.07;3.08;;;;;;;15.73;46.67;100459.88;5058523;28;20033;-67
2023/04/22 03:38:01;;;;;;;3.55;2.63;;;;;;;15.74;46.90;100456.16;5041794;28;20036;-67
2023/04/22 03:40:26;;;;;;;3.25;1.83;;;;;;;15.71;45.79;100452.97;5041693;28;20446;-67
2023/04/22 03:42:52;;;;;;;2.75;2.17;;;;;;;15.72;45.96;100469.00;5058002;28;20029;-67
2023/04/22 03:45:17;;;;;;;3.20;2.00;;;;;;;15.72;45.55;100463.59;5075801;28;20032;-67
2023/04/22 03:47:42;;;;;;;2.28;1.80;;;;;;;15.69;46.93;100463.94;5041455;28;20086;-67
2023/04/22 03:50:08;;;;;;;4.03;2.15;;;;;;;15.67;46.51;100452.47;5075757;28;20035;-67
2023/04/22 03:52:34;;;;;;;4.07;2.10;;;;;;;15.67;45.39;100449.75;5058231;28;20044;-67
2023/04/22 03:54:59;;;;;;;6.00;2.85;;;;;;;15.65;46.48;100443.69;5041216;28;20044;-67
2023/04/22 03:57:25;;;;;;;3.70;2.22;;;;;;;15.67;45.43;100440.81;5058011;28;20087;-67
2023/04/22 03:59:50;;;;;;;5.68;2.90;;;;;;;15.67;45.61;100433.56;5075643;28;20518;-67
2023/04/22 04:02:16;;;;;;;3.63;2.42;;;;;;;15.65;46.21;100430.19;5057595;28;20410;-67
2023/04/22 04:04:41;;;;;;;4.57;3.00;;;;;;;15.66;45.77;100426.47;5041249;28;20035;-67
2023/04/22 04:07:07;;;;;;;11.25;2.92;;;;;;;15.66;46.33;100421.06;5057633;28;20109;-67
2023/04/22 04:09:32;;;;;;;4.78;3.00;;;;;;;15.67;46.79;100420.06;5024392;28;20059;-67
2023/04/22 04:11:58;;;;;;;5.13;2.70;;;;;;;15.69;46.73;100428.81;5057753;28;20035;-67
2023/04/22 04:14:23;;;;;;;6.63;3.35;;;;;;;15.71;47.11;100424.13;5057600;28;20058;-67
2023/04/22 04:16:48;;;;;;;5.18;3.42;;;;;;;15.71;46.54;100421.41;5057778;28;20028;-67
2023/04/22 04:19:14;;;;;;;5.97;3.25;;;;;;;15.71;46.79;100413.31;5039978;28;20511;-67
2023/04/22 04:21:40;;;;;;;5.63;3.42;;;;;;;15.72;46.21;100417.69;5040394;28;20036;-67
2023/04/22 04:24:06;;;;;;;6.57;3.05;;;;;;;15.74;47.00;100407.53;5057390;28;20033;-67
2023/04/22 04:26:32;;;;;;;6.45;3.65;;;;;;;15.77;45.94;100406.38;5057539;28;20081;-67
2023/04/22 04:28:58;;;;;;;6.43;3.80;;;;;;;15.79;46.31;100417.84;5057404;28;20442;-67
2023/04/22 04:31:23;;;;;;;5.32;3.30;;;;;;;15.80;47.25;100416.00;5057654;28;20024;-67
2023/04/22 04:33:49;;;;;;;6.88;3.55;;;;;;;15.82;47.34;100416.66;5074930;28;20032;-67
2023/04/22 04:36:14;;;;;;;7.05;4.18;;;;;;;15.83;47.64;100411.06;5040526;28;20380;-67
2023/04/22 04:38:40;;;;;;;3.80;2.97;;;;;;;15.86;45.89;100415.28;5057020;28;20027;-67
2023/04/22 04:41:08;;;;;;;5.45;3.10;;;;;;;15.87;46.74;100411.56;5056802;28;20032;-67
2023/04/22 04:43:34;;;;;;;4.63;3.03;;;;;;;15.88;46.98;100407.88;5056548;28;20024;-67
2023/04/22 04:46:00;;;;;;;6.15;3.33;;;;;;;15.92;45.98;100417.28;5057251;28;20036;-67
2023/04/22 04:48:25;;;;;;;7.65;3.60;;;;;;;15.91;46.62;100407.53;5074766;28;20032;-67
2023/04/22 04:50:52;;;;;;;6.15;3.88;;;;;;;15.93;47.45;100410.88;5040146;28;20112;-67
2023/04/22 04:53:20;;;;;;;6.38;3.47;;;;;;;15.95;46.59;100415.09;5074402;28;20432;-67
2023/04/22 04:55:45;;;;;;;8.57;4.13;;;;;;;15.99;46.56;100400.22;5057199;28;20103;-67
2023/04/22 04:58:10;;;;;;;5.55;3.65;;;;;;;16.01;47.46;100402.75;5056556;28;20564;-67
2023/04/22 05:00:36;;;;;;;5.00;3.40;;;;;;;16.06;46.03;100408.47;5056685;28;20036;-67
2023/04/22 05:03:03;;;;;;;7.70;3.30;;;;;;;16.08;46.54;100401.06;5056831;28;20028;-67
2023/04/22 05:05:28;;;;;;;5.45;3.63;;;;;;;16.12;47.03;100405.91;5058033;28;20093;-67
2023/04/22 05:07:53;;;;;;;7.22;4.68;;;;;;;16.15;47.15;100415.53;5041434;28;20115;-67
2023/04/22 05:10:20;;;;;;;10.35;3.80;;;;;;;16.18;46.79;100404.38;5075229;28;20101;-67
2023/04/22 05:12:46;;;;;;;9.85;4.53;;;;;;;16.21;46.22;100404.03;5056764;28;20033;-66
2023/04/22 05:15:12;;;;;;;9.88;4.30;;;;;;;16.25;46.45;100405.34;5057052;28;20098;-67
2023/04/22 05:17:38;;;;;;;11.68;4.38;;;;;;;16.26;47.47;100404.34;5056322;28;20412;-67
2023/04/22 05:20:03;;;;;;;7.18;4.65;;;;;;;16.33;47.30;100413.44;5056277;28;20036;-67
2023/04/22 05:22:29;;;;;;;6.32;4.25;;;;;;;16.37;46.51;100422.84;5056555;28;20032;-67
2023/04/22 05:24:54;;;;;;;6.82;4.45;;;;;;;16.41;46.28;100416.09;5056236;28;20036;-67
2023/04/22 05:27:19;;;;;;;10.35;4.75;;;;;;;16.48;46.99;100417.06;5074145;28;20420;-67
2023/04/22 05:29:45;;;;;;;5.93;3.78;;;;;;;16.53;46.49;100414.69;5050754;28;20044;-67
2023/04/22 05:32:10;;;;;;;10.63;4.50;;;;;;;16.59;47.47;100413.97;5039438;28;20399;-67
2023/04/22 05:34:36;;;;;;;7.43;4.25;;;;;;;16.65;47.11;100417.84;5056236;28;20086;-67
2023/04/22 05:37:04;;;;;;;9.80;3.97;;;;;;;16.74;46.33;100411.38;5039661;28;20032;-67
2023/04/22 05:39:29;;;;;;;9.35;4.30;;;;;;;16.81;47.21;100413.16;5055963;28;20648;-66
2023/04/22 05:41:54;;;;;;;8.65;4.25;;;;;;;16.86;46.34;100415.34;5072515;28;20090;-67
2023/04/22 05:44:20;;;;;;;7.95;4.18;;;;;;;16.97;46.59;100422.19;5055961;28;20540;-67
2023/04/22 05:46:46;;;;;;;8.68;4.28;;;;;;;17.07;45.88;100418.22;5056415;28;20523;-67
2023/04/22 05:49:11;;;;;;;6.60;3.97;;;;;;;17.15;46.18;100411.91;5055953;28;20082;-67
2023/04/22 05:51:37;;;;;;;5.72;3.97;;;;;;;17.24;46.52;100413.53;5052499;28;20132;-67
2023/04/22 05:54:02;;;;;;;7.90;4.53;;;;;;;17.29;47.09;100414.66;5075351;28;20032;-67
2023/04/22 05:56:27;;;;;;;8.35;4.30;;;;;;;17.39;47.10;100420.66;5075709;28;20028;-67
2023/04/22 05:58:53;;;;;;;10.65;5.45;;;;;;;17.46;47.09;100413.50;5076109;28;20107;-67
2023/04/22 06:01:18;;;;;;;12.23;6.25;;;;;;;17.64;46.22;100409.63;5057487;28;20488;-67
2023/04/22 06:03:44;;;;;;;9.18;4.88;;;;;;;17.74;46.92;100411.03;5075532;28;20042;-67
2023/04/22 06:06:09;;;;;;;8.60;4.75;;;;;;;17.94;46.58;100417.59;5075877;28;20046;-67
2023/04/22 06:08:34;;;;;;;7.32;4.35;;;;;;;18.04;46.13;100423.56;5042165;28;20032;-67
2023/04/22 06:11:00;;;;;;;8.02;4.43;;;;;;;18.11;46.92;100422.81;5058954;28;20035;-67
2023/04/22 06:13:26;;;;;;;9.75;4.72;;;;;;;18.18;46.33;100415.59;5059175;28;20047;-67
2023/04/22 06:15:52;;;;;;;8.90;4.28;;;;;;;18.41;46.54;100409.03;5093324;28;20059;-67
2023/04/22 06:18:17;;;;;;;8.88;5.05;;;;;;;18.58;46.66;100405.09;5075170;28;20491;-67
2023/04/22 06:20:43;;;;;;;9.63;5.00;;;;;;;18.89;45.67;100404.81;5074957;28;20035;-67
2023/04/22 06:23:08;;;;;;;7.97;5.18;;;;;;;19.17;45.89;100399.44;5093180;28;20097;-67
2023/04/22 06:25:34;;;;;;;8.00;4.13;;;;;;;19.15;46.24;100394.19;5058930;28;20028;-67
2023/04/22 06:27:59;;;;;;;9.35;4.93;;;;;;;19.43;45.78;100407.84;5074821;28;20571;-68
2023/04/22 06:30:25;;;;;;;10.85;4.53;;;;;;;19.55;45.69;100411.69;5058681;28;20514;-68
2023/04/22 06:32:51;;;;;;;8.57;4.18;;;;;;;19.57;46.13;100411.53;5058743;28;20391;-67
2023/04/22 06:35:17;;;;;;;7.72;4.38;;;;;;;19.71;46.08;100413.25;5075480;28;20024;-67
2023/04/22 06:37:43;;;;;;;6.05;4.15;;;;;;;20.03;45.43;100409.94;5058764;28;20107;-65
2023/04/22 06:40:09;;;;;;;7.30;4.32;;;;;;;20.07;45.91;100408.47;5058347;28;20162;-65
2023/04/22 06:42:34;;;;;;;7.97;5.03;;;;;;;20.17;45.30;100397.25;5074850;28;20410;-65
2023/04/22 06:45:00;;;;;;;6.03;4.47;;;;;;;20.14;45.29;100387.59;5058029;28;20171;-65
2023/04/22 06:47:25;;;;;;;7.05;4.10;;;;;;;20.25;45.59;100389.78;5058093;28;20445;-66
2023/04/22 06:49:50;;;;;;;8.20;4.28;;;;;;;20.41;45.62;100388.59;5093080;28;20103;-65
2023/04/22 06:52:16;;;;;;;6.63;4.40;;;;;;;20.38;45.59;100377.28;5074439;28;20125;-65
2023/04/22 06:54:41;;;;;;;10.90;4.88;;;;;;;20.65;45.38;100389.94;5058139;28;20044;-65
2023/04/22 06:57:06;;;;;;;11.68;5.38;;;;;;;20.93;44.78;100382.47;5074810;28;20503;-66
2023/04/22 06:59:32;;;;;;;8.82;5.57;;;;;;;21.15;44.81;100386.72;5074680;28;20079;-67
2023/04/22 07:01:58;;;;;;;9.45;4.72;;;;;;;21.34;44.90;100383.16;5074694;28;20074;-67
2023/04/22 07:04:23;;;;;;;8.80;4.55;;;;;;;21.53;44.71;100380.59;5041319;28;20032;-67
2023/04/22 07:06:48;;;;;;;9.93;4.95;;;;;;;21.76;45.06;100372.81;5059634;28;20105;-69
2023/04/22 07:09:14;;;;;;;8.43;4.15;;;;;;;21.93;44.37;100374.06;5079062;28;20028;-69
2023/04/22 07:11:39;;;;;;;9.10;4.28;;;;;;;22.25;44.64;100367.66;5061956;28;20040;-69
2023/04/22 07:14:05;;;;;;;13.82;4.63;;;;;;;22.40;43.78;100367.38;5078661;28;20032;-69
2023/04/22 07:16:30;;;;;;;6.70;3.83;;;;;;;22.59;43.96;100361.81;5061650;28;20463;-69
2023/04/22 07:18:56;;;;;;;8.57;4.28;;;;;;;22.81;43.61;100353.34;5096350;28;20479;-69
2023/04/22 07:21:21;;;;;;;9.70;4.00;;;;;;;22.96;43.81;100351.97;5096905;28;20035;-69
2023/04/22 07:23:46;;;;;;;10.77;4.28;;;;;;;23.09;43.27;100364.66;5061431;28;20122;-69
2023/04/22 07:26:12;;;;;;;8.50;3.25;;;;;;;23.16;44.04;100365.47;5061502;28;20032;-69
2023/04/22 07:28:38;;;;;;;8.10;3.92;;;;;;;23.33;43.16;100347.47;5103167;22;20112;-94
2023/04/22 07:31:03;;;;;;;6.47;4.07;;;;;;;23.58;43.15;100351.03;5033394;28;20036;-91
2023/04/22 07:33:29;;;;;;;9.23;3.72;;;;;;;23.91;42.46;100352.59;5034675;28;20035;-92
2023/04/22 07:35:54;;;;;;;6.38;4.05;;;;;;;24.12;42.34;100333.00;5050151;28;20036;-91
2023/04/22 07:38:20;;;;;;;6.78;3.65;;;;;;;24.41;42.46;100354.09;5032569;28;20406;-92
2023/04/22 07:40:45;;;;;;;5.95;3.63;;;;;;;24.22;42.62;100311.41;5048090;28;20039;-91
2023/04/22 07:43:11;;;;;;;7.70;3.92;;;;;;;24.68;41.73;100344.44;5031796;28;20128;-92
2023/04/22 07:45:36;;;;;;;5.82;3.50;;;;;;;24.80;42.11;100326.19;5032032;28;20558;-92
2023/04/22 07:48:02;;;;;;;6.03;3.47;;;;;;;24.83;41.38;100309.28;5049935;28;20127;-91
2023/04/22 07:50:28;;;;;;;5.68;3.28;;;;;;;24.56;42.15;100247.72;5038583;28;20044;-88
2023/04/22 07:53:14;;;;;;;6.30;3.30;;;;;;;25.11;41.65;100335.19;5047369;28;20044;-88
2023/04/22 07:55:51;;;;;;;10.30;3.38;;;;;;;24.83;41.71;100268.16;5048774;28;20508;-89
2023/04/22 07:58:20;;;;;;;4.43;2.92;;;;;;;24.93;41.11;100250.31;5045347;28;20100;-89
2023/04/22 08:00:46;;;;;;;5.45;3.40;;;;;;;25.27;41.14;100285.97;5045727;28;20481;-89
2023/04/22 08:03:12;;;;;;;7.75;3.22;;;;;;;25.69;40.79;100324.25;5045945;28;20029;-89
2023/04/22 08:05:38;;;;;;;3.83;2.60;;;;;;;25.67;40.85;100304.47;5028876;28;20054;-90
2023/04/22 08:08:04;;;;;;;3.45;2.55;;;;;;;26.01;40.57;100326.38;5028819;28;20029;-88
2023/04/22 08:10:29;;;;;;;4.97;2.75;;;;;;;25.99;40.53;100286.53;5062746;28;20401;-89
2023/04/22 08:12:55;;;;;;;3.40;2.35;;;;;;;26.26;40.09;100303.28;5028345;28;20039;-89
2023/04/22 08:15:20;;;;;;;4.03;2.28;;;;;;;26.47;39.93;100302.59;5027712;28;20101;-88
2023/04/22 08:17:46;;;;;;;3.30;2.55;;;;;;;26.63;39.41;100294.38;5043344;28;20049;-88
2023/04/22 08:20:11;;;;;;;2.67;2.13;;;;;;;26.82;39.68;100311.53;5024361;28;20069;-88
2023/04/22 08:22:37;;;;;;;3.30;2.35;;;;;;;26.98;39.31;100288.72;5024805;28;20087;-88
2023/04/22 08:25:07;;;;;;;3.47;2.25;;;;;;;27.06;38.74;100266.31;5016240;28;20033;-88
2023/04/22 08:27:32;;;;;;;6.18;2.58;;;;;;;27.36;38.37;100281.63;5027327;28;20045;-88
2023/04/22 08:29:58;;;;;;;3.58;2.13;;;;;;;27.69;38.45;100309.91;5024157;28;20055;-88
2023/04/22 08:32:25;;;;;;;4.32;2.13;;;;;;;27.76;37.75;100307.00;5023747;28;20127;-89
2023/04/22 08:34:50;;;;;;;4.95;2.63;;;;;;;27.68;38.43;100279.91;5023749;28;20175;-88
2023/04/22 08:37:16;;;;;;;4.65;2.40;;;;;;;28.00;37.73;100305.66;5023620;28;20060;-89
2023/04/22 08:39:41;;;;;;;4.07;2.47;;;;;;;28.09;37.61;100290.38;5040683;28;20423;-88
2023/04/22 08:42:07;;;;;;;4.47;2.20;;;;;;;27.93;36.96;100258.22;5040553;28;20036;-88
2023/04/22 08:44:34;;;;;;;3.28;2.72;;;;;;;28.29;37.34;100301.66;5022930;28;20486;-88
2023/04/22 08:47:00;;;;;;;4.38;2.30;;;;;;;28.51;37.27;100303.53;5055143;28;20052;-87
2023/04/22 08:49:26;;;;;;;3.03;2.63;;;;;;;28.73;36.92;100304.34;5022204;28;20522;-87
2023/04/22 08:51:52;;;;;;;4.47;2.67;;;;;;;28.92;36.31;100302.91;5038434;28;20055;-88
2023/04/22 08:54:18;;;;;;;4.60;2.30;;;;;;;29.10;36.30;100290.59;5038918;28;20075;-88
2023/04/22 08:56:44;;;;;;;3.28;2.13;;;;;;;29.52;36.48;100298.94;5023203;28;20053;-87
2023/04/22 08:59:10;;;;;;;5.57;2.58;;;;;;;29.56;36.88;100309.22;5037645;28;20029;-88
2023/04/22 09:01:37;;;;;;;6.03;2.45;;;;;;;29.33;36.18;100271.78;5038632;28;20053;-87
2023/04/22 09:04:03;;;;;;;4.10;2.50;;;;;;;29.32;36.82;100283.09;5038347;28;20491;-88
2023/04/22 09:06:29;;;;;;;2.95;2.00;;;;;;;29.39;36.69;100298.34;5037967;28;20029;-87
2023/04/22 09:08:57;;;;;;;2.65;1.80;;;;;;;29.51;36.65;100295.34;5022377;28;20021;-87
2023/04/22 09:11:25;;;;;;;2.88;1.80;;;;;;;29.76;36.37;100295.50;5037808;28;20051;-87
2023/04/22 09:13:53;;;;;;;2.67;2.08;;;;;;;29.68;35.43;100253.75;5021109;28;20033;-87
2023/04/22 09:16:18;;;;;;;3.90;1.83;;;;;;;29.94;36.03;100299.78;5037696;28;20521;-87
2023/04/22 09:18:46;;;;;;;1.95;1.52;;;;;;;29.83;35.73;100254.72;5020966;28;20057;-88
2023/04/22 09:21:12;;;;;;;2.65;1.50;;;;;;;30.08;35.32;100264.19;5038521;28;20032;-90
2023/04/22 09:23:50;;;;;;;2.45;1.50;;;;;;;30.30;34.30;100270.34;5021192;28;20120;-88
2023/04/22 09:26:19;;;;;;;2.13;1.55;;;;;;;30.49;34.47;100279.81;5054152;28;20033;-87
2023/04/22 09:28:52;;;;;;;2.95;1.73;;;;;;;30.64;33.56;100287.31;5036913;28;20060;-86
2023/04/22 09:31:18;;;;;;;2.83;2.20;;;;;;;30.83;34.22;100286.50;5037103;28;20560;-87
2023/04/22 09:33:48;;;;;;;3.42;1.48;;;;;;;31.11;33.70;100293.47;5020992;28;20041;-87
2023/04/22 09:36:14;;;;;;;2.38;1.85;;;;;;;31.26;33.57;100268.56;5020748;28;20028;-86
2023/04/22 09:38:39;;;;;;;2.88;2.03;;;;;;;31.60;33.42;100288.19;5020616;28;20032;-86
2023/04/22 09:41:09;;;;;;;4.15;2.10;;;;;;;31.89;33.18;100293.88;5020125;28;20082;-86
2023/04/22 09:43:37;;;;;;;2.42;1.88;;;;;;;32.16;32.54;100297.97;5020269;28;20025;-86
2023/04/22 09:46:02;;;;;;;3.97;2.42;;;;;;;32.21;32.27;100250.84;5019645;28;20517;-87
2023/04/22 09:48:28;;;;;;;5.43;2.40;;;;;;;32.86;32.50;100287.59;5019987;28;20114;-86
2023/04/22 09:50:53;;;;;;;3.53;2.00;;;;;;;32.84;32.36;100278.72;5053243;28;20092;-86
2023/04/22 09:53:20;;;;;;;2.30;2.00;;;;;;;33.76;31.79;100274.84;5020175;28;20037;-86
2023/04/22 09:55:48;;;;;;;4.30;1.85;;;;;;;34.61;30.34;100269.31;5036664;28;20056;-87
2023/04/22 09:58:19;;;;;;;4.05;2.13;;;;;;;35.30;29.01;100276.81;5020027;28;20570;-87
2023/04/22 10:00:47;;;;;;;4.13;2.73;;;;;;;35.23;29.91;100259.66;5053525;28;20482;-87
2023/04/22 10:03:13;;;;;;;2.30;1.73;;;;;;;35.31;29.45;100277.63;5054497;28;20024;-87
2023/04/22 10:05:40;;;;;;;1.77;1.38;;;;;;;35.18;29.31;100286.78;5020680;28;20055;-86
2023/04/22 10:08:08;;;;;;;2.53;1.60;;;;;;;34.74;29.19;100257.41;5036718;28;20465;-87
2023/04/22 10:10:34;;;;;;;2.95;1.40;;;;;;;34.51;29.01;100283.31;5025339;28;20096;-86
2023/04/22 10:13:00;;;;;;;5.30;1.98;;;;;;;34.01;29.63;100237.53;5054579;28;20502;-87
2023/04/22 10:15:47;;;;;;;3.88;1.48;;;;;;;33.32;30.01;100240.84;5036637;28;20059;-87
2023/04/22 10:18:16;;;;;;;1.80;1.15;;;;;;;32.94;29.78;100289.75;5036449;28;20087;-86
2023/04/22 10:20:43;;;;;;;1.30;1.20;;;;;;;32.33;29.85;100258.78;5036750;28;20055;-87
2023/04/22 10:23:19;;;;;;;2.00;1.13;;;;;;;31.85;31.03;100281.72;5019957;28;20522;-86
2023/04/22 10:25:50;;;;;;;2.45;1.48;;;;;;;31.30;30.89;100274.34;5036191;28;20033;-87
2023/04/22 10:28:16;;;;;;;2.58;1.33;;;;;;;30.91;31.68;100260.22;5052856;28;20068;-86
2023/04/22 10:30:42;;;;;;;2.83;1.52;;;;;;;31.74;30.27;100235.78;5019597;28;20088;-87
2023/04/22 10:33:19;;;;;;;2.17;1.67;;;;;;;32.34;29.80;100267.94;5021174;28;20036;-87
2023/04/22 10:36:14;;;;;;;2.08;1.50;;;;;;;31.60;30.79;100260.47;5059921;28;20030;-87
2023/04/22 10:38:45;;;;;;;5.10;1.52;;;;;;;30.93;31.50;100256.09;5057587;28;20402;-86
2023/04/22 10:41:14;;;;;;;2.80;1.15;;;;;;;30.38;30.90;100250.47;5041560;28;20067;-86
2023/04/22 10:43:44;;;;;;;2.28;1.40;;;;;;;30.20;31.40;100231.63;5049167;28;20033;-86
2023/04/22 10:46:36;;;;;;;1.70;1.23;;;;;;;30.24;31.71;100272.25;5025971;28;20037;-87
2023/04/22 10:49:11;;;;;;;1.42;1.30;;;;;;;29.81;31.90;100247.78;5043156;28;20040;-87
2023/04/22 10:51:59;;;;;;;2.47;1.55;;;;;;;29.48;32.15;100224.13;5040939;28;20036;-87
2023/04/22 10:57:05;;;;;;;1.52;1.42;;;;;;;29.48;32.40;100273.00;5059521;28;20028;-87
2023/04/22 10:59:33;;;;;;;2.30;1.70;;;;;;;29.36;32.98;100273.19;5024888;28;20033;-88
2023/04/22 11:02:02;;;;;;;2.20;1.50;;;;;;;29.22;33.02;100286.63;5040100;28;20044;-87
2023/04/22 11:04:28;;;;;;;3.83;1.40;;;;;;;28.66;32.89;100221.03;5040228;28;20039;-87
2023/04/22 11:07:19;;;;;;;2.28;1.77;;;;;;;28.72;32.67;100291.66;5057166;28;20036;-88
2023/04/22 11:09:47;;;;;;;1.95;1.38;;;;;;;28.41;33.02;100301.50;5040351;28;20029;-87
2023/04/22 11:12:37;;;;;;;2.22;1.30;;;;;;;28.18;33.46;100308.13;5041005;28;20040;-87
2023/04/22 11:15:21;;;;;;;3.50;1.50;;;;;;;28.05;33.37;100311.28;5059521;28;20419;-86
2023/04/22 11:17:49;;;;;;;2.85;1.35;;;;;;;27.95;32.86;100311.09;5024954;28;20550;-87
2023/04/22 11:20:18;;;;;;;2.42;1.45;;;;;;;27.98;33.20;100312.50;5041220;28;20068;-87
2023/04/22 11:22:46;;;;;;;3.03;1.27;;;;;;;27.98;33.47;100312.50;5040934;28;20033;-87
2023/04/22 11:25:12;;;;;;;2.38;1.40;;;;;;;27.99;33.23;100309.53;5041166;28;20116;-87